Airfield :
LOGIN :

Register | Disclaimer

   EN    FR    IT 

 










Legend :    VFR   Marginal VFR   IFR   Intensive IFR   Very Intensive IFR
Visi :
Ceiling :
>= 8 km
>= 3000ft
5 to 8 km
1000 to 3000 ft
1500m to 5 km
500 to 1000 ft
800 to 1500m
200 to 500 ft
< 800m
< 200 ft
Symbols :   Thunderstorms  Fog  Heavy snow  Heavy precipitations  Wind > 20 kt
SIGMETs :     Misc.  Thunderstorms  Icing  Turbulence  Mountain Waves  Volcanic Ashes






- Airport Elevation : 741 ft
- IATA code : PED


LKPD - Pardubice AB

CURRENT METAR :
  • 141300Z 21019KT 9999 SCT037 BKN046 05/01 Q0992 NOSIG RMK BLU BLU

EXPIRED METARs :
  • 141200Z 20009KT 9999 -RA SCT027 OVC037 04/00 Q0991 NOSIG RMK BLU BLU
  • 141100Z 14005KT 120V190 9999 -RA BKN036 OVC052 04/01 Q0992 NOSIG RMK BLU BLU

TAF TAF LKPD
Valid from the 14 at 12:00 until the 15 at 12:00 UTC


141100Z 1412/1512 20010KT CAVOK
TEMPO 1412/1423 26018G30KT BKN040
TEMPO 1412/1418 6000 RA BKN020
BECMG 1507/1510 BKN035
TEMPO 1507/1512 22014KT 7000 RA BKN017



MET'MAP, your aeronautical weather chart ! - Copyright ORBIFLY December 2007 - Disclaimer

ORBIFLY MET'MAP TEAM :

Programming & Development : Alexandra Zaïnal
Concept & original design : Baudouin d'Aumeries
Assistance for programming : Marc-Olivier Méhu
Technical & hardware support : Manuel Goepfert

Contact : metmap@orbifly.com




SOURCES & CREDITS :

   NOAA